Time;durP1;ratioP1;P1;durP2;ratioP2;P2;SDS_P1;SDS_P2;PMS_P1;PMS_P2;Temp;Humidity;BMP_temperature;BMP_pressure;BME280_temperature;BME280_humidity;BME280_pressure;Samples;Min_cycle;Max_cycle;Signal;HPM_P1;HPM_P2
2023/08/09 00:00:05;;;;;;;24.08;15.70;;;15.40;99.90;;;;;;5048955;28;20041;-75
2023/08/09 00:02:30;;;;;;;27.65;16.45;;;15.30;99.90;;;;;;5043142;28;20032;-75
2023/08/09 00:04:56;;;;;;;30.25;18.13;;;15.40;99.90;;;;;;5052999;28;20021;-74
2023/08/09 00:07:21;;;;;;;26.50;16.95;;;15.40;99.90;;;;;;5051011;28;20115;-75
2023/08/09 00:09:47;;;;;;;30.02;18.48;;;15.30;99.90;;;;;;5051267;28;20025;-75
2023/08/09 00:12:13;;;;;;;29.13;18.23;;;15.40;99.90;;;;;;5042604;28;20037;-75
2023/08/09 00:14:38;;;;;;;30.20;18.35;;;15.30;99.90;;;;;;5042383;28;20028;-75
2023/08/09 00:17:04;;;;;;;32.08;19.65;;;15.30;99.90;;;;;;5049260;28;20020;-75
2023/08/09 00:19:30;;;;;;;33.13;19.35;;;15.30;99.90;;;;;;5051461;28;20033;-75
2023/08/09 00:21:55;;;;;;;33.95;20.73;;;15.30;99.90;;;;;;5050924;28;20021;-75
2023/08/09 00:24:21;;;;;;;36.47;22.42;;;15.20;99.90;;;;;;5050470;28;20116;-75
2023/08/09 00:26:47;;;;;;;35.22;21.92;;;15.20;99.90;;;;;;5040116;28;20025;-75
2023/08/09 00:29:12;;;;;;;36.00;21.20;;;15.10;99.90;;;;;;5048336;28;20040;-75
2023/08/09 00:31:38;;;;;;;32.92;20.52;;;15.20;99.90;;;;;;5050132;28;20060;-75
2023/08/09 00:34:06;;;;;;;36.05;22.00;;;15.10;99.90;;;;;;5043277;28;20113;-75
2023/08/09 00:36:31;;;;;;;33.00;21.23;;;15.20;99.90;;;;;;5045416;28;20082;-75
2023/08/09 00:38:57;;;;;;;34.10;21.55;;;15.10;99.90;;;;;;5043016;28;20030;-75
2023/08/09 00:41:23;;;;;;;37.10;22.10;;;15.10;99.90;;;;;;5049065;28;20025;-75
2023/08/09 00:43:48;;;;;;;36.78;22.48;;;15.10;99.90;;;;;;5042203;28;20400;-75
2023/08/09 00:46:14;;;;;;;37.60;22.42;;;15.10;99.90;;;;;;5051776;28;20021;-75
2023/08/09 00:48:39;;;;;;;36.72;22.55;;;15.10;99.90;;;;;;5039035;28;20117;-75
2023/08/09 00:51:05;;;;;;;33.65;21.33;;;15.10;99.90;;;;;;5045746;28;20033;-75
2023/08/09 00:53:31;;;;;;;35.45;22.52;;;15.00;99.90;;;;;;5050545;28;20028;-75
2023/08/09 00:55:57;;;;;;;36.10;22.73;;;15.00;99.90;;;;;;5041431;28;20025;-75
2023/08/09 00:58:23;;;;;;;39.78;24.30;;;15.00;99.90;;;;;;5007824;28;1127337;-75
2023/08/09 01:00:49;;;;;;;39.05;23.55;;;15.00;99.90;;;;;;5052183;28;20032;-75
2023/08/09 01:03:15;;;;;;;37.42;23.10;;;15.00;99.90;;;;;;5043522;28;20058;-75
2023/08/09 01:06:36;;;;;;;41.15;24.70;;;15.00;99.90;;;;;;5044529;28;20021;-75
2023/08/09 01:09:22;;;;;;;36.45;23.27;;;15.00;99.90;;;;;;5053130;28;20517;-75
2023/08/09 01:12:00;;;;;;;37.13;23.50;;;15.00;99.90;;;;;;5044586;28;20047;-75
2023/08/09 01:14:28;;;;;;;39.95;23.85;;;14.90;99.90;;;;;;5049285;28;20040;-75
2023/08/09 01:16:55;;;;;;;37.85;22.90;;;14.90;99.90;;;;;;5044449;28;20028;-75
2023/08/09 01:19:33;;;;;;;35.85;22.63;;;14.90;99.90;;;;;;5048042;28;20380;-75
2023/08/09 01:22:04;;;;;;;36.72;23.05;;;14.90;99.90;;;;;;5042367;28;20025;-75
2023/08/09 01:24:31;;;;;;;35.53;23.10;;;14.90;99.90;;;;;;5048776;28;20116;-75
2023/08/09 01:26:57;;;;;;;36.00;23.08;;;14.90;99.90;;;;;;5043890;28;20068;-75
2023/08/09 01:29:22;;;;;;;34.88;23.60;;;14.90;99.90;;;;;;5046020;28;20037;-75
2023/08/09 01:31:48;;;;;;;33.53;23.10;;;14.90;99.90;;;;;;5038329;28;20033;-75
2023/08/09 01:34:15;;;;;;;36.92;24.42;;;14.90;99.90;;;;;;5049362;28;20025;-75
2023/08/09 01:36:42;;;;;;;35.78;24.60;;;14.80;99.90;;;;;;5047494;28;20021;-75
2023/08/09 01:39:14;;;;;;;38.33;25.90;;;14.80;99.90;;;;;;5040527;28;20028;-75
2023/08/09 01:41:42;;;;;;;38.00;25.50;;;14.80;99.90;;;;;;5047302;28;20021;-75
2023/08/09 01:44:09;;;;;;;37.65;25.63;;;14.80;99.90;;;;;;5043076;28;20116;-75
2023/08/09 01:46:35;;;;;;;40.15;26.63;;;14.80;99.90;;;;;;5034810;28;20032;-74
2023/08/09 01:49:12;;;;;;;40.33;26.88;;;14.80;99.90;;;;;;5038181;28;20025;-75
2023/08/09 01:51:38;;;;;;;42.10;27.52;;;14.70;99.90;;;;;;5048810;28;20032;-75
2023/08/09 01:54:06;;;;;;;40.35;26.30;;;14.70;99.90;;;;;;5050617;28;20499;-75
2023/08/09 01:56:32;;;;;;;42.65;27.35;;;14.70;99.90;;;;;;5042891;28;20168;-75
2023/08/09 01:58:58;;;;;;;39.63;26.98;;;14.70;99.90;;;;;;5042872;28;20045;-75
2023/08/09 02:01:24;;;;;;;40.40;26.77;;;14.70;99.90;;;;;;5045314;28;20037;-75
2023/08/09 02:03:50;;;;;;;38.88;25.67;;;14.70;99.90;;;;;;5045046;28;20032;-75
2023/08/09 02:06:15;;;;;;;40.17;25.80;;;14.70;99.90;;;;;;5046317;28;20026;-75
2023/08/09 02:08:45;;;;;;;40.90;26.02;;;14.70;99.90;;;;;;5046052;28;20495;-75
2023/08/09 02:11:10;;;;;;;37.55;24.83;;;14.60;99.90;;;;;;5048768;28;20108;-75
2023/08/09 02:13:37;;;;;;;37.83;24.88;;;14.60;99.90;;;;;;5043713;28;20512;-74
2023/08/09 02:16:05;;;;;;;39.85;25.20;;;14.60;99.90;;;;;;5044272;28;20048;-75
2023/08/09 02:18:31;;;;;;;36.05;24.92;;;14.60;99.90;;;;;;5049869;28;20538;-75
2023/08/09 02:20:59;;;;;;;36.40;25.35;;;14.60;99.90;;;;;;5043291;28;20036;-75
2023/08/09 02:23:25;;;;;;;37.33;24.70;;;14.60;99.90;;;;;;5043473;28;20438;-75
2023/08/09 02:25:54;;;;;;;39.67;25.05;;;14.60;99.90;;;;;;5046297;28;20091;-75
2023/08/09 02:28:20;;;;;;;34.85;24.27;;;14.50;99.90;;;;;;5041035;28;20291;-75
2023/08/09 02:30:46;;;;;;;34.88;24.55;;;14.50;99.90;;;;;;5049330;28;20025;-75
2023/08/09 02:33:12;;;;;;;34.70;24.85;;;14.50;99.90;;;;;;5050989;28;20043;-74
2023/08/09 02:35:53;;;;;;;34.67;24.25;;;14.50;99.90;;;;;;5043827;28;20116;-75
2023/08/09 02:38:19;;;;;;;37.00;24.77;;;14.50;99.90;;;;;;5039292;28;20029;-75
2023/08/09 02:40:45;;;;;;;34.35;24.15;;;14.50;99.90;;;;;;5042883;28;20021;-75
2023/08/09 02:43:11;;;;;;;35.35;23.45;;;14.50;99.90;;;;;;5049058;28;20086;-75
2023/08/09 02:45:37;;;;;;;38.70;23.85;;;14.50;99.90;;;;;;5041568;28;20059;-75
2023/08/09 02:48:03;;;;;;;35.42;23.80;;;14.50;99.90;;;;;;5041741;28;20032;-74
2023/08/09 02:50:29;;;;;;;39.75;25.17;;;14.50;99.90;;;;;;5042253;28;20432;-75
2023/08/09 02:52:55;;;;;;;35.65;24.25;;;14.50;99.90;;;;;;5042765;28;20124;-75
2023/08/09 02:55:21;;;;;;;34.95;24.40;;;14.50;99.90;;;;;;5051300;28;20021;-75
2023/08/09 02:57:46;;;;;;;37.03;24.95;;;14.50;99.90;;;;;;5041763;28;20040;-75
2023/08/09 03:00:16;;;;;;;35.67;24.35;;;14.50;99.90;;;;;;5049042;28;20037;-75
2023/08/09 03:02:41;;;;;;;37.97;26.08;;;14.50;99.90;;;;;;5044044;28;20036;-74
2023/08/09 03:05:08;;;;;;;38.92;26.15;;;14.50;99.90;;;;;;5051217;28;20092;-75
2023/08/09 03:07:35;;;;;;;39.00;25.80;;;14.50;99.90;;;;;;5049535;28;20049;-75
2023/08/09 03:10:03;;;;;;;37.17;25.52;;;14.50;99.90;;;;;;5049632;28;20075;-75
2023/08/09 03:12:28;;;;;;;40.38;25.60;;;14.50;99.90;;;;;;5046527;28;20064;-75
2023/08/09 03:14:54;;;;;;;36.88;24.83;;;14.50;99.90;;;;;;5046017;28;20052;-75
2023/08/09 03:17:20;;;;;;;34.83;23.52;;;14.50;99.90;;;;;;5051217;28;20360;-74
2023/08/09 03:19:46;;;;;;;36.47;24.63;;;14.50;99.90;;;;;;5048535;28;20021;-75
2023/08/09 03:22:12;;;;;;;39.47;26.25;;;14.60;99.90;;;;;;5048463;28;20025;-75
2023/08/09 03:24:38;;;;;;;35.35;23.20;;;14.60;99.90;;;;;;5041026;28;20328;-75
2023/08/09 03:27:04;;;;;;;38.20;23.67;;;14.50;99.90;;;;;;5047787;28;20031;-74
2023/08/09 03:29:29;;;;;;;36.20;22.95;;;14.50;99.90;;;;;;5050724;28;20024;-75
2023/08/09 03:31:55;;;;;;;38.20;23.33;;;14.50;99.90;;;;;;5049910;28;20454;-74
2023/08/09 03:34:21;;;;;;;34.50;22.23;;;14.50;99.90;;;;;;5047073;28;20053;-74
2023/08/09 03:36:46;;;;;;;33.47;22.30;;;14.50;99.90;;;;;;5036942;28;20029;-74
2023/08/09 03:39:12;;;;;;;37.00;22.35;;;14.50;99.90;;;;;;5047372;28;20029;-74
2023/08/09 03:41:38;;;;;;;36.05;23.92;;;14.50;99.90;;;;;;5050362;28;20021;-75
2023/08/09 03:44:04;;;;;;;34.75;21.20;;;14.60;99.90;;;;;;5050226;28;20032;-74
2023/08/09 03:46:30;;;;;;;33.15;22.40;;;14.60;99.90;;;;;;5041706;28;20033;-74
2023/08/09 03:48:55;;;;;;;34.67;22.63;;;14.60;99.90;;;;;;5048370;28;20098;-74
2023/08/09 03:51:21;;;;;;;34.67;22.60;;;14.60;99.90;;;;;;5043828;28;20462;-74
2023/08/09 03:53:46;;;;;;;34.13;23.05;;;14.60;99.90;;;;;;5038544;28;20026;-74
2023/08/09 03:56:12;;;;;;;31.20;21.48;;;14.60;99.90;;;;;;5043748;28;20392;-75
2023/08/09 03:58:38;;;;;;;33.13;22.48;;;14.60;99.90;;;;;;5052460;28;20044;-75
2023/08/09 04:01:03;;;;;;;33.08;23.05;;;14.60;99.90;;;;;;5053048;28;20063;-75
2023/08/09 04:03:29;;;;;;;32.53;20.85;;;14.50;99.90;;;;;;5053971;28;20025;-75
2023/08/09 04:05:55;;;;;;;31.63;20.58;;;14.50;99.90;;;;;;5054037;28;20021;-75
2023/08/09 04:08:21;;;;;;;32.78;20.40;;;14.60;99.90;;;;;;5045990;28;20142;-75
2023/08/09 04:10:48;;;;;;;33.40;20.48;;;14.60;99.90;;;;;;5052182;28;20475;-75
2023/08/09 04:13:14;;;;;;;29.77;19.40;;;14.60;99.90;;;;;;5047606;28;20393;-75
2023/08/09 04:15:40;;;;;;;33.35;19.55;;;14.60;99.90;;;;;;5051383;28;20063;-75
2023/08/09 04:18:05;;;;;;;28.90;18.98;;;14.60;99.90;;;;;;5052656;28;20170;-74
2023/08/09 04:20:31;;;;;;;28.75;18.42;;;14.60;99.90;;;;;;5053889;28;20460;-74
2023/08/09 04:23:00;;;;;;;26.77;17.92;;;14.60;99.90;;;;;;5052749;28;20534;-75
2023/08/09 04:25:26;;;;;;;25.63;18.08;;;14.60;99.90;;;;;;5048024;28;20033;-74
2023/08/09 04:27:53;;;;;;;27.60;18.30;;;14.60;99.90;;;;;;5053553;28;20114;-74
2023/08/09 04:30:18;;;;;;;25.80;17.85;;;14.60;99.90;;;;;;5037801;28;20499;-75
2023/08/09 04:32:44;;;;;;;25.90;17.08;;;14.70;99.90;;;;;;5047513;28;20031;-74
2023/08/09 04:35:10;;;;;;;25.52;17.15;;;14.60;99.90;;;;;;5053054;28;20040;-74
2023/08/09 04:37:36;;;;;;;25.45;17.10;;;14.60;99.90;;;;;;5048475;28;20388;-74
2023/08/09 04:40:02;;;;;;;26.33;16.48;;;14.60;99.90;;;;;;5050325;28;20032;-75
2023/08/09 04:42:27;;;;;;;22.77;15.43;;;14.70;99.90;;;;;;5043532;28;20017;-74
2023/08/09 04:44:53;;;;;;;26.42;16.45;;;14.70;99.90;;;;;;5052821;28;20029;-74
2023/08/09 04:47:18;;;;;;;26.63;16.38;;;14.70;99.90;;;;;;5053262;28;20029;-75
2023/08/09 04:49:45;;;;;;;26.67;15.13;;;14.80;99.90;;;;;;5053358;28;20111;-75
2023/08/09 04:52:10;;;;;;;21.17;14.52;;;14.80;99.90;;;;;;5049365;28;20512;-75
2023/08/09 04:54:36;;;;;;;20.80;15.00;;;14.80;99.90;;;;;;5040271;28;20021;-74
2023/08/09 04:57:02;;;;;;;23.15;14.65;;;14.90;99.90;;;;;;5045540;28;20044;-75
2023/08/09 04:59:28;;;;;;;22.67;14.80;;;14.90;99.90;;;;;;5038007;28;20385;-74
2023/08/09 05:01:54;;;;;;;21.80;14.40;;;14.90;99.90;;;;;;5037452;28;20044;-75
2023/08/09 05:04:20;;;;;;;20.90;13.50;;;15.00;99.90;;;;;;5036695;28;20048;-75
2023/08/09 05:06:45;;;;;;;21.42;13.18;;;15.00;99.90;;;;;;5047531;28;20021;-74
2023/08/09 05:09:11;;;;;;;18.85;12.88;;;15.10;99.90;;;;;;5048956;28;20237;-74
2023/08/09 05:11:36;;;;;;;20.98;13.25;;;15.10;99.90;;;;;;5049112;28;20552;-75
2023/08/09 05:14:02;;;;;;;22.02;12.98;;;15.10;99.90;;;;;;5048328;28;20049;-74
2023/08/09 05:16:28;;;;;;;19.42;13.30;;;15.10;99.90;;;;;;5050017;28;20075;-75
2023/08/09 05:18:53;;;;;;;18.13;13.02;;;15.20;99.90;;;;;;5038078;28;20489;-75
2023/08/09 05:21:19;;;;;;;19.20;13.80;;;15.20;99.90;;;;;;5046872;28;20443;-74
2023/08/09 05:23:45;;;;;;;19.00;12.90;;;15.20;99.90;;;;;;5050407;28;20484;-75
2023/08/09 05:26:10;;;;;;;22.15;13.25;;;15.20;99.90;;;;;;5052216;28;20025;-75
2023/08/09 05:28:36;;;;;;;18.55;13.40;;;15.20;99.90;;;;;;5048789;28;20033;-75
2023/08/09 05:31:02;;;;;;;21.52;14.20;;;15.20;99.90;;;;;;5041683;28;20021;-74
2023/08/09 05:33:27;;;;;;;21.58;14.27;;;15.20;99.90;;;;;;5050726;28;20388;-74
2023/08/09 05:35:53;;;;;;;22.17;14.00;;;15.20;99.90;;;;;;5048033;28;20060;-74
2023/08/09 05:38:18;;;;;;;22.13;14.55;;;15.20;99.90;;;;;;5050575;28;20434;-74
2023/08/09 05:40:44;;;;;;;20.05;13.45;;;15.20;99.90;;;;;;5047736;28;20024;-74
2023/08/09 05:43:12;;;;;;;21.98;14.80;;;15.20;99.90;;;;;;5050171;28;20029;-74
2023/08/09 05:45:37;;;;;;;23.52;14.25;;;15.20;99.90;;;;;;5041133;28;20450;-75
2023/08/09 05:48:04;;;;;;;22.30;14.90;;;15.20;99.90;;;;;;5047578;28;20104;-75
2023/08/09 05:50:29;;;;;;;23.05;14.02;;;15.20;99.90;;;;;;5042278;28;20115;-74
2023/08/09 05:52:55;;;;;;;19.70;14.05;;;15.20;99.90;;;;;;5043618;28;20076;-75
2023/08/09 05:55:21;;;;;;;21.13;14.65;;;15.20;99.90;;;;;;5035413;28;20026;-74
2023/08/09 05:57:47;;;;;;;25.80;15.20;;;15.20;99.90;;;;;;5039095;28;20044;-74
2023/08/09 06:00:15;;;;;;;22.25;14.32;;;15.30;99.90;;;;;;5045712;28;20033;-74
2023/08/09 06:02:43;;;;;;;22.17;15.23;;;15.30;99.90;;;;;;5044002;28;20033;-74
2023/08/09 06:05:14;;;;;;;22.75;14.90;;;15.40;99.90;;;;;;5045686;28;20488;-74
2023/08/09 06:07:40;;;;;;;20.98;13.93;;;15.50;99.90;;;;;;5048142;28;20043;-74
2023/08/09 06:10:06;;;;;;;25.38;14.70;;;15.50;99.90;;;;;;5047715;28;20480;-75
2023/08/09 06:12:31;;;;;;;22.48;15.20;;;15.60;99.90;;;;;;5051638;28;20921;-74
2023/08/09 06:14:57;;;;;;;21.95;15.23;;;15.60;99.90;;;;;;5049450;28;20048;-74
2023/08/09 06:17:22;;;;;;;26.48;15.10;;;15.70;99.90;;;;;;5046809;28;20112;-75
2023/08/09 06:19:48;;;;;;;22.67;15.73;;;15.80;99.90;;;;;;5048427;28;20031;-74
2023/08/09 06:22:14;;;;;;;26.70;15.18;;;15.90;99.90;;;;;;5033936;28;20108;-74
2023/08/09 06:24:39;;;;;;;26.40;14.40;;;16.00;99.90;;;;;;5044119;28;20021;-74
2023/08/09 06:27:05;;;;;;;19.75;14.18;;;16.10;99.90;;;;;;5048508;28;20028;-75
2023/08/09 06:29:32;;;;;;;23.95;14.15;;;16.20;99.90;;;;;;5049953;28;20051;-75
2023/08/09 06:31:58;;;;;;;23.40;14.25;;;16.30;99.90;;;;;;5042629;28;20025;-75
2023/08/09 06:34:24;;;;;;;22.88;14.63;;;16.30;99.90;;;;;;5043503;28;20058;-75
2023/08/09 06:36:49;;;;;;;20.85;13.45;;;16.40;99.90;;;;;;5047987;28;20013;-75
2023/08/09 06:39:15;;;;;;;23.95;13.73;;;16.40;99.90;;;;;;5049949;28;20033;-74
2023/08/09 06:41:41;;;;;;;21.65;13.20;;;16.40;99.90;;;;;;5050200;28;20025;-75
2023/08/09 06:44:06;;;;;;;23.10;14.35;;;16.40;99.90;;;;;;5050245;28;20020;-75
2023/08/09 06:46:33;;;;;;;22.95;13.77;;;16.40;99.90;;;;;;5044765;28;20029;-74
2023/08/09 06:48:59;;;;;;;23.83;14.77;;;16.50;99.90;;;;;;5048977;28;20424;-75
2023/08/09 06:51:24;;;;;;;19.92;14.13;;;16.50;99.90;;;;;;5046147;28;20055;-75
2023/08/09 06:53:50;;;;;;;20.67;13.88;;;16.50;99.90;;;;;;5050135;28;20365;-74
2023/08/09 06:56:15;;;;;;;23.33;14.85;;;16.60;99.90;;;;;;5049744;28;20029;-75
2023/08/09 06:58:41;;;;;;;25.45;14.02;;;16.60;99.90;;;;;;5038930;28;20107;-75
2023/08/09 07:01:09;;;;;;;22.25;12.55;;;16.70;99.90;;;;;;5050380;28;20103;-75
2023/08/09 07:03:35;;;;;;;17.52;11.63;;;16.80;99.90;;;;;;5040950;28;20032;-74
2023/08/09 07:06:02;;;;;;;20.08;11.52;;;16.90;99.90;;;;;;5050444;28;20032;-74
2023/08/09 07:08:27;;;;;;;13.90;9.75;;;17.00;99.90;;;;;;5045480;28;20461;-75
2023/08/09 07:10:53;;;;;;;14.00;7.55;;;17.10;99.90;;;;;;5049942;28;20143;-75
2023/08/09 07:13:19;;;;;;;13.00;7.03;;;17.10;99.90;;;;;;5040042;28;20013;-74
2023/08/09 07:15:45;;;;;;;8.82;5.97;;;17.30;99.90;;;;;;5050144;28;20056;-75
2023/08/09 07:18:10;;;;;;;13.60;5.85;;;17.30;99.90;;;;;;5049324;28;20617;-75
2023/08/09 07:20:36;;;;;;;11.27;5.47;;;17.40;99.90;;;;;;5051826;28;20029;-74
2023/08/09 07:23:02;;;;;;;9.90;4.82;;;17.50;99.90;;;;;;5050687;28;20029;-75
2023/08/09 07:25:27;;;;;;;10.85;4.85;;;17.50;99.90;;;;;;5050735;28;20108;-74
2023/08/09 07:27:53;;;;;;;8.13;4.85;;;17.50;99.90;;;;;;5054563;28;20025;-74
2023/08/09 07:30:19;;;;;;;8.35;4.65;;;17.60;99.90;;;;;;5045979;28;20091;-74
2023/08/09 07:32:45;;;;;;;7.90;3.95;;;17.70;99.90;;;;;;5055601;28;20484;-76
2023/08/09 07:35:13;;;;;;;7.93;3.88;;;17.80;99.90;;;;;;5044423;28;20044;-74
2023/08/09 07:37:42;;;;;;;7.45;3.50;;;18.00;99.90;;;;;;5049158;28;20043;-74
2023/08/09 07:40:09;;;;;;;7.20;3.40;;;18.00;99.90;;;;;;5055124;28;20095;-74
2023/08/09 07:42:35;;;;;;;7.10;3.65;;;18.00;99.90;;;;;;5054736;28;20021;-74
2023/08/09 07:45:02;;;;;;;10.35;4.10;;;18.00;99.90;;;;;;5043684;28;20021;-74
2023/08/09 07:47:27;;;;;;;10.95;3.95;;;18.10;99.90;;;;;;5050851;28;20040;-74
2023/08/09 07:49:53;;;;;;;11.30;3.95;;;18.10;99.90;;;;;;5042218;28;20021;-74
2023/08/09 07:52:19;;;;;;;9.35;4.28;;;18.10;99.90;;;;;;5042495;28;20024;-75
2023/08/09 07:54:44;;;;;;;7.68;4.05;;;18.20;99.90;;;;;;5046212;28;20025;-74
2023/08/09 07:57:10;;;;;;;8.85;4.63;;;18.20;99.90;;;;;;5051545;28;20547;-74
2023/08/09 07:59:36;;;;;;;6.97;4.00;;;18.20;99.90;;;;;;5054414;28;20123;-74
2023/08/09 08:02:01;;;;;;;7.57;4.28;;;18.20;99.90;;;;;;5054342;28;20051;-74
2023/08/09 08:04:27;;;;;;;7.93;4.25;;;18.30;99.90;;;;;;5050877;28;20029;-74
2023/08/09 08:06:52;;;;;;;10.68;4.82;;;18.40;99.90;;;;;;5051620;28;20017;-74
2023/08/09 08:09:19;;;;;;;9.05;5.22;;;18.50;99.90;;;;;;5045438;28;20672;-74
2023/08/09 08:11:45;;;;;;;10.57;4.97;;;18.70;99.90;;;;;;5050753;28;20488;-74
2023/08/09 08:14:10;;;;;;;7.20;4.65;;;18.70;99.90;;;;;;5052883;28;20021;-74
2023/08/09 08:16:36;;;;;;;12.82;5.57;;;18.70;99.90;;;;;;5051483;28;20461;-74
2023/08/09 08:19:02;;;;;;;16.10;5.68;;;18.60;99.90;;;;;;5051238;28;20091;-74
2023/08/09 08:21:28;;;;;;;7.88;5.25;;;18.60;99.90;;;;;;5050393;28;20013;-74
2023/08/09 08:23:54;;;;;;;10.10;4.65;;;18.60;99.90;;;;;;5052853;28;20021;-74
2023/08/09 08:26:19;;;;;;;10.50;4.72;;;18.60;99.90;;;;;;5048820;28;20048;-74
2023/08/09 08:28:46;;;;;;;8.35;4.93;;;18.50;99.90;;;;;;5048543;28;20472;-74
2023/08/09 08:31:12;;;;;;;7.63;4.43;;;18.60;99.90;;;;;;5048084;28;20033;-74
2023/08/09 08:33:44;;;;;;;9.70;4.47;;;18.70;99.90;;;;;;5052322;28;20025;-74
2023/08/09 08:36:10;;;;;;;10.77;4.90;;;18.80;99.90;;;;;;5051583;28;20391;-74
2023/08/09 08:38:35;;;;;;;8.20;3.83;;;18.90;99.90;;;;;;5051824;28;20451;-74
2023/08/09 08:41:01;;;;;;;7.53;3.85;;;19.00;99.90;;;;;;5048392;28;20025;-74
2023/08/09 08:43:27;;;;;;;9.07;3.30;;;19.10;99.90;;;;;;5052466;28;20027;-74
2023/08/09 08:45:54;;;;;;;7.75;3.60;;;19.30;99.90;;;;;;5049607;28;20495;-74
2023/08/09 08:48:19;;;;;;;12.40;3.60;;;19.40;99.90;;;;;;5045163;28;20037;-74
2023/08/09 08:50:47;;;;;;;6.72;3.22;;;19.40;99.90;;;;;;5047025;28;20124;-74
2023/08/09 08:53:13;;;;;;;7.25;3.05;;;19.60;99.90;;;;;;5047129;28;20053;-74
2023/08/09 08:55:39;;;;;;;8.75;2.95;;;19.70;99.90;;;;;;5048112;28;20021;-74
2023/08/09 08:58:05;;;;;;;6.57;2.92;;;19.80;99.90;;;;;;5051965;28;20064;-74
2023/08/09 09:00:32;;;;;;;7.97;3.15;;;19.90;99.90;;;;;;5052496;28;20472;-74
2023/08/09 09:02:58;;;;;;;5.50;2.65;;;20.10;99.90;;;;;;5051969;28;20043;-74
2023/08/09 09:05:24;;;;;;;6.57;2.88;;;20.20;99.90;;;;;;5052126;28;20100;-74
2023/08/09 09:07:56;;;;;;;6.25;2.40;;;20.40;99.90;;;;;;5048216;28;20096;-74
2023/08/09 09:10:23;;;;;;;6.93;2.85;;;20.40;99.90;;;;;;5049040;28;20033;-74
2023/08/09 09:12:55;;;;;;;6.28;2.67;;;20.50;99.90;;;;;;5050414;28;20380;-74
2023/08/09 09:15:22;;;;;;;6.20;2.60;;;20.50;99.90;;;;;;5041391;28;20488;-74
2023/08/09 09:17:49;;;;;;;7.55;2.38;;;20.60;99.90;;;;;;5051707;28;20365;-74
2023/08/09 09:20:29;;;;;;;6.07;2.40;;;20.80;99.90;;;;;;5044563;28;20026;-74
2023/08/09 09:22:55;;;;;;;6.07;2.50;;;20.90;99.90;;;;;;5047652;28;20033;-74
2023/08/09 09:25:22;;;;;;;8.75;2.22;;;20.80;99.90;;;;;;5044597;28;20583;-75
2023/08/09 09:27:52;;;;;;;14.18;2.33;;;20.60;99.90;;;;;;5048033;28;20017;-74
2023/08/09 09:30:21;;;;;;;8.90;2.08;;;20.50;99.90;;;;;;5051715;28;20029;-74
2023/08/09 09:33:08;;;;;;;6.82;1.80;;;20.50;99.90;;;;;;5051340;28;20025;-75
2023/08/09 09:35:34;;;;;;;8.32;1.90;;;20.80;99.90;;;;;;5051852;28;20163;-74
2023/08/09 09:38:02;;;;;;;11.27;1.90;;;20.90;99.90;;;;;;5051396;28;20121;-74
2023/08/09 09:40:33;;;;;;;2.95;1.55;;;20.90;99.90;;;;;;5045994;28;20030;-75
2023/08/09 09:43:01;;;;;;;8.50;1.90;;;20.80;99.90;;;;;;5049752;28;20031;-75
2023/08/09 09:45:28;;;;;;;9.98;1.83;;;20.70;99.90;;;;;;5037187;28;20079;-74
2023/08/09 09:47:56;;;;;;;8.10;2.08;;;20.80;99.90;;;;;;5048312;28;20104;-75
2023/08/09 09:50:23;;;;;;;5.60;2.03;;;20.70;99.90;;;;;;5050297;28;20025;-74
2023/08/09 09:52:52;;;;;;;5.75;1.77;;;20.70;99.90;;;;;;5051077;28;20075;-74
2023/08/09 09:55:20;;;;;;;8.48;2.00;;;20.80;99.90;;;;;;5050702;28;20025;-74
2023/08/09 09:57:47;;;;;;;6.85;1.95;;;20.90;99.90;;;;;;5045058;28;20297;-74
2023/08/09 10:00:16;;;;;;;9.48;2.20;;;21.00;99.90;;;;;;5050742;28;20086;-74
2023/08/09 10:02:48;;;;;;;4.13;1.95;;;21.00;99.90;;;;;;5048320;28;20029;-75
2023/08/09 10:05:37;;;;;;;4.38;1.90;;;21.20;99.90;;;;;;5042787;28;20599;-74
2023/08/09 10:08:10;;;;;;;4.82;2.03;;;21.40;99.90;;;;;;5043877;28;20029;-74
2023/08/09 10:10:38;;;;;;;9.52;2.30;;;21.60;99.90;;;;;;5042923;28;20434;-74
2023/08/09 10:13:07;;;;;;;11.27;2.15;;;21.60;99.90;;;;;;5041306;28;20078;-75
2023/08/09 10:15:36;;;;;;;7.40;1.80;;;21.60;99.90;;;;;;5043055;28;20025;-74
2023/08/09 10:18:14;;;;;;;6.35;1.80;;;21.70;99.90;;;;;;5053169;28;20491;-74
2023/08/09 10:20:51;;;;;;;8.02;1.90;;;21.80;99.90;;;;;;5050183;28;20025;-74
2023/08/09 10:23:25;;;;;;;9.45;1.80;;;21.90;99.90;;;;;;5048325;28;20029;-74
2023/08/09 10:25:53;;;;;;;7.70;1.60;;;21.80;99.90;;;;;;5039883;28;20040;-74
2023/08/09 10:28:41;;;;;;;7.70;1.67;;;21.90;99.90;;;;;;5046920;28;20025;-74
2023/08/09 10:31:07;;;;;;;7.25;1.80;;;21.70;99.90;;;;;;5047451;28;20037;-74
2023/08/09 10:33:33;;;;;;;2.78;1.50;;;21.50;99.90;;;;;;5050362;28;20525;-75
2023/08/09 10:35:59;;;;;;;7.25;1.42;;;21.60;99.90;;;;;;5049919;28;20491;-74
2023/08/09 10:38:30;;;;;;;8.35;1.73;;;21.70;99.90;;;;;;5047786;28;20060;-75
2023/08/09 10:40:56;;;;;;;6.28;1.60;;;21.90;99.90;;;;;;5045356;28;20474;-75
2023/08/09 10:43:24;;;;;;;9.70;2.00;;;22.00;99.90;;;;;;5050547;28;20060;-75
2023/08/09 10:45:53;;;;;;;5.25;1.65;;;22.10;99.90;;;;;;5050142;28;20428;-75
2023/08/09 10:48:26;;;;;;;7.03;1.77;;;22.00;99.90;;;;;;5050380;28;20037;-75
2023/08/09 10:51:07;;;;;;;3.78;1.50;;;22.00;99.90;;;;;;5039006;28;20034;-74
2023/08/09 10:54:03;;;;;;;9.40;1.58;;;22.00;99.90;;;;;;5044892;28;20099;-75
2023/08/09 10:56:34;;;;;;;;;;;22.20;99.90;;;;;;5042291;28;20024;-75
2023/08/09 10:59:14;;;;;;;6.15;1.58;;;22.00;99.90;;;;;;5049771;28;19963;-75
2023/08/09 11:01:43;;;;;;;7.22;1.55;;;21.90;99.90;;;;;;5053086;28;20048;-75
2023/08/09 11:04:10;;;;;;;6.57;1.60;;;21.80;99.90;;;;;;5047852;28;20321;-75
2023/08/09 11:06:40;;;;;;;6.57;1.75;;;21.70;99.90;;;;;;5054018;28;20029;-75
2023/08/09 11:09:08;;;;;;;8.75;1.60;;;21.60;99.90;;;;;;5054200;28;20029;-75
2023/08/09 11:11:35;;;;;;;10.23;1.70;;;21.40;99.90;;;;;;5048488;28;20032;-75
2023/08/09 11:14:02;;;;;;;4.60;1.52;;;21.20;99.90;;;;;;5054329;28;20480;-75
2023/08/09 11:16:29;;;;;;;9.02;1.60;;;21.30;99.90;;;;;;5053894;28;20022;-74
2023/08/09 11:19:09;;;;;;;3.47;1.40;;;21.30;99.90;;;;;;5052757;28;20029;-75
2023/08/09 11:21:41;;;;;;;9.23;1.83;;;21.20;99.90;;;;;;5053985;28;20598;-75
2023/08/09 11:24:08;;;;;;;6.30;1.70;;;21.20;99.90;;;;;;5054342;28;20387;-75
2023/08/09 11:26:46;;;;;;;5.35;1.40;;;21.20;99.90;;;;;;5047216;28;20033;-75
2023/08/09 11:29:12;;;;;;;5.88;1.40;;;21.20;99.90;;;;;;5044234;28;20116;-75
2023/08/09 11:31:43;;;;;;;8.77;1.80;;;21.20;99.90;;;;;;5047225;28;20079;-75
2023/08/09 11:34:14;;;;;;;6.63;1.58;;;21.30;99.90;;;;;;5046603;28;20026;-75
2023/08/09 11:36:40;;;;;;;9.02;1.83;;;21.30;99.90;;;;;;5049653;28;20360;-75
2023/08/09 11:39:08;;;;;;;6.75;1.70;;;21.40;99.90;;;;;;5049725;28;20024;-75
2023/08/09 11:41:43;;;;;;;5.72;1.48;;;21.60;99.90;;;;;;5053906;28;20025;-75
2023/08/09 11:44:11;;;;;;;4.45;1.25;;;21.70;99.90;;;;;;5050761;28;20033;-74
2023/08/09 11:46:37;;;;;;;6.68;1.70;;;21.80;99.90;;;;;;5054398;28;20511;-75
2023/08/09 11:49:04;;;;;;;5.10;1.55;;;21.70;99.90;;;;;;5052001;28;20021;-75
2023/08/09 11:51:32;;;;;;;6.85;1.80;;;21.60;99.90;;;;;;5049471;28;20040;-75
2023/08/09 11:53:58;;;;;;;8.70;1.52;;;21.50;99.90;;;;;;5047469;28;20021;-75
2023/08/09 11:56:24;;;;;;;5.10;1.73;;;21.50;99.90;;;;;;5044910;28;20025;-75
2023/08/09 11:58:54;;;;;;;8.38;1.80;;;21.60;99.90;;;;;;5053891;28;20110;-74
2023/08/09 12:01:22;;;;;;;9.82;1.75;;;21.70;99.90;;;;;;5047010;28;20036;-75
2023/08/09 12:03:51;;;;;;;6.47;1.88;;;21.80;99.90;;;;;;5052892;28;20074;-75
2023/08/09 12:06:18;;;;;;;6.47;1.67;;;21.90;99.90;;;;;;5053644;28;20106;-75
2023/08/09 12:08:44;;;;;;;9.75;1.80;;;22.00;99.90;;;;;;5053173;28;20021;-75
2023/08/09 12:11:15;;;;;;;5.80;1.85;;;22.10;99.90;;;;;;5051437;28;20408;-75
2023/08/09 12:13:41;;;;;;;7.53;1.60;;;22.20;99.90;;;;;;5039004;28;20021;-75
2023/08/09 12:16:07;;;;;;;12.85;2.03;;;22.20;99.90;;;;;;5053148;28;20032;-75
2023/08/09 12:18:36;;;;;;;5.70;1.70;;;22.40;99.90;;;;;;5052761;28;20034;-75
2023/08/09 12:21:05;;;;;;;5.68;1.75;;;22.40;99.90;;;;;;5052734;28;20484;-75
2023/08/09 12:23:32;;;;;;;8.02;1.50;;;22.40;99.90;;;;;;5051452;28;20025;-76
2023/08/09 12:25:58;;;;;;;7.78;1.55;;;22.40;99.90;;;;;;5052806;28;20024;-73
2023/08/09 12:28:24;;;;;;;7.38;1.75;;;22.50;99.90;;;;;;5043796;28;20017;-73
2023/08/09 12:30:49;;;;;;;6.57;1.90;;;22.60;99.90;;;;;;5047338;28;20071;-73
2023/08/09 12:33:16;;;;;;;6.88;1.55;;;22.70;99.90;;;;;;5049743;28;20120;-73
2023/08/09 12:35:41;;;;;;;6.47;1.58;;;22.90;99.90;;;;;;5047719;28;20017;-73